Philadelphia, Pennsylvania
Traffic Map
Current Weather Conditions
Philadelphia, Pennsylvania
Overcast
Overcast
16°
Feels Like: 16°
Wind Chill: 16° Ceiling: 10000
Heat Index: 16° Visibility: 10mi
Dew Point: Wind: 13mph
Humidity: 44% Direction: 310° (NW)
Pressure: 29.86in Gusts: 0mph
Raw Report DataKPHL 191354Z 31011KT 10SM BKN100 OVC150 16/03 A2986 RMK AO2 SLP110 T01560033
Traffic Incident Summary
Active as of:
Severity:
Category:
InformationThere was an issue retrieving the traffic information for this location. Please try a different location or try again shortly.
Advertisements
Track Severe Weather on mobile